パゴパゴ の空港の天気 - METARとTAF

パゴパゴ国際空港 ( NSTU / PPG ) - アメリカ領サモア パゴパゴ
飛行場実況気象(Metar)
観測時間02/17 11:50 SST (02/17 22:50 UTC)
風向・風速北西 4m/s
視程10km以上
天気現象弱いしゅう雨
全天の4割程度の雲 雲底高度 490m
全天の8割程度の雲 雲底高度 1220m
全天の8割程度の雲 雲底高度 3050m
気温28.7℃
湿度81%
気圧1009hPa
METARNSTU 172250Z 31008KT 12SM -SHRA SCT016TCU BKN040 BKN100 29/25 A2979 RMK SHRAB01 TCU W-N SLP090 T02870251
過去の天気等 Google飛行場航空写真 Wunderground天気予報

過去48時間のMETAR

飛行場予報(TAF)
発表時間: 2/17 06:43 SST (2/17 17:43 UTC)
予報対象時間: 17日7時 SST ~ 18日7時 SST
風向・風速不定 2m/s
視程10km以上
天気現象周辺でしゅう雨
少しの雲 雲底高度 760m
全天の4割程度の雲 雲底高度 1220m
全天の4割程度の雲 雲底高度 3050m
NSTU 171743Z 1718/1818 VRB03KT P6SM VCSH FEW025 SCT040 SCT100